createdAt,value
2019-05-22T00:02:03.565Z,59.00
2019-05-22T00:04:37.366Z,59.10
2019-05-22T00:07:09.444Z,59.10
2019-05-22T00:09:44.461Z,59.10
2019-05-22T00:12:19.210Z,59.20
2019-05-22T00:14:50.054Z,59.30
2019-05-22T00:17:20.487Z,59.30
2019-05-22T00:19:50.065Z,60.00
2019-05-22T00:22:24.653Z,59.40
2019-05-22T00:24:54.575Z,59.40
2019-05-22T00:27:25.528Z,59.40
2019-05-22T00:29:55.899Z,59.50
2019-05-22T00:32:26.015Z,59.40
2019-05-22T00:34:56.005Z,59.40
2019-05-22T00:37:25.729Z,59.30
2019-05-22T00:39:55.272Z,59.40
2019-05-22T00:42:24.924Z,59.40
2019-05-22T00:44:56.002Z,59.40
2019-05-22T00:47:25.597Z,59.40
2019-05-22T00:49:56.446Z,59.50
2019-05-22T00:52:48.795Z,59.50
2019-05-22T00:55:23.040Z,59.60
2019-05-22T00:57:57.174Z,59.80
2019-05-22T01:00:28.937Z,59.80
2019-05-22T01:02:59.485Z,59.90
2019-05-22T01:05:30.194Z,59.90
2019-05-22T01:08:00.909Z,59.90
2019-05-22T01:10:30.585Z,59.90
2019-05-22T01:13:03.443Z,59.90
2019-05-22T01:15:35.140Z,59.90
2019-05-22T01:18:07.327Z,59.90
2019-05-22T01:20:37.797Z,60.00
2019-05-22T01:23:08.809Z,59.90
2019-05-22T01:25:38.070Z,59.90
2019-05-22T01:28:09.444Z,59.90
2019-05-22T01:30:46.723Z,59.90
2019-05-22T01:33:21.201Z,59.90
2019-05-22T01:36:27.436Z,59.90
2019-05-22T01:39:03.352Z,60.00
2019-05-22T01:41:33.826Z,60.10
2019-05-22T01:44:03.720Z,60.20
2019-05-22T01:46:36.462Z,60.20
2019-05-22T01:49:07.445Z,60.30
2019-05-22T01:51:38.187Z,60.20
2019-05-22T01:54:09.445Z,60.00
2019-05-22T01:56:39.917Z,60.00
2019-05-22T01:59:09.561Z,59.90
2019-05-22T02:01:41.254Z,59.90
2019-05-22T02:04:14.777Z,59.90
2019-05-22T02:06:43.388Z,60.00
2019-05-22T02:09:27.111Z,60.00
2019-05-22T02:12:00.838Z,60.00
2019-05-22T02:14:30.590Z,60.00
2019-05-22T02:17:01.438Z,60.10
2019-05-22T02:19:31.250Z,60.10
2019-05-22T02:22:02.264Z,60.20
2019-05-22T02:24:32.108Z,60.10
2019-05-22T02:27:03.221Z,60.10
2019-05-22T02:29:32.628Z,60.20
2019-05-22T02:32:01.711Z,60.30
2019-05-22T02:34:32.354Z,60.30
2019-05-22T02:37:01.554Z,60.60
2019-05-22T02:39:35.262Z,60.60
2019-05-22T02:42:11.911Z,60.40
2019-05-22T02:44:41.763Z,60.50
2019-05-22T02:47:19.621Z,60.40
2019-05-22T02:49:43.143Z,60.50
2019-05-22T02:52:13.771Z,60.50
2019-05-22T02:54:42.950Z,60.50
2019-05-22T02:57:13.194Z,60.40
2019-05-22T02:59:43.161Z,60.40
2019-05-22T03:02:13.409Z,60.40
2019-05-22T03:04:55.818Z,60.30
2019-05-22T03:07:26.732Z,60.30
2019-05-22T03:09:56.649Z,60.20
2019-05-22T03:12:27.376Z,60.10
2019-05-22T03:14:56.800Z,60.10
2019-05-22T03:17:28.372Z,60.10
2019-05-22T03:19:58.128Z,60.00
2019-05-22T03:22:29.112Z,60.10
2019-05-22T03:25:00.446Z,60.00
2019-05-22T03:27:41.089Z,59.90
2019-05-22T03:30:18.008Z,59.90
2019-05-22T03:32:47.491Z,59.90
2019-05-22T03:35:17.056Z,59.70
2019-05-22T03:37:46.581Z,59.60
2019-05-22T03:40:16.845Z,59.50
2019-05-22T03:42:46.132Z,59.70
2019-05-22T03:45:15.563Z,59.70
2019-05-22T03:47:45.389Z,59.80
2019-05-22T03:50:15.559Z,59.90
2019-05-22T03:52:44.766Z,59.70
2019-05-22T03:55:13.948Z,59.80
2019-05-22T03:57:43.035Z,59.70
2019-05-22T04:00:15.167Z,59.80
2019-05-22T04:02:45.824Z,60.00
2019-05-22T04:05:16.216Z,59.80
2019-05-22T04:07:45.866Z,59.60
2019-05-22T04:10:15.051Z,59.60
2019-05-22T04:12:44.384Z,59.60
2019-05-22T04:15:13.548Z,59.70
2019-05-22T04:17:44.898Z,59.80
2019-05-22T04:20:15.695Z,59.90
2019-05-22T04:22:44.922Z,59.80
2019-05-22T04:25:14.280Z,59.80
2019-05-22T04:27:44.009Z,59.70
2019-05-22T04:30:15.769Z,59.70
2019-05-22T04:32:45.981Z,59.70
2019-05-22T04:35:17.603Z,59.60
2019-05-22T04:37:49.407Z,59.60
2019-05-22T04:40:47.640Z,59.50
2019-05-22T04:43:20.289Z,59.50
2019-05-22T04:45:48.485Z,59.40
2019-05-22T04:48:17.810Z,59.40
2019-05-22T04:50:46.980Z,59.40
2019-05-22T04:53:17.052Z,59.40
2019-05-22T04:55:46.254Z,59.40
2019-05-22T04:58:21.923Z,59.50
2019-05-22T05:00:51.378Z,59.50
2019-05-22T05:03:21.134Z,59.30
2019-05-22T05:05:52.324Z,59.20
2019-05-22T05:08:21.780Z,59.10
2019-05-22T05:10:53.015Z,60.60
2019-05-22T05:13:23.667Z,59.40
2019-05-22T05:15:52.700Z,59.40
2019-05-22T05:18:21.793Z,60.30
2019-05-22T05:20:51.013Z,60.20
2019-05-22T05:23:20.170Z,60.70
2019-05-22T05:25:49.935Z,60.80
2019-05-22T05:28:20.714Z,61.30
2019-05-22T05:30:49.859Z,60.90
2019-05-22T05:33:23.609Z,61.10
2019-05-22T05:35:53.329Z,60.30
2019-05-22T05:38:43.599Z,60.20
2019-05-22T05:41:12.934Z,61.70
2019-05-22T05:43:42.430Z,60.90
2019-05-22T05:46:11.648Z,60.40
2019-05-22T05:48:41.400Z,60.30
2019-05-22T05:51:43.230Z,60.70
2019-05-22T05:54:16.061Z,60.60
2019-05-22T05:56:48.932Z,60.10
2019-05-22T05:59:20.394Z,61.00
2019-05-22T06:01:54.075Z,60.90
2019-05-22T06:04:35.346Z,61.10
2019-05-22T06:07:19.939Z,60.50
2019-05-22T06:10:21.183Z,60.70
2019-05-22T06:12:52.081Z,60.90
2019-05-22T06:15:24.729Z,60.70
2019-05-22T06:18:40.090Z,60.80
2019-05-22T06:21:10.057Z,60.70
2019-05-22T06:24:16.823Z,60.70
2019-05-22T06:27:08.249Z,60.70
2019-05-22T06:30:07.925Z,60.70
2019-05-22T06:33:15.362Z,60.50
2019-05-22T06:35:44.705Z,61.10
2019-05-22T06:38:59.382Z,60.80
2019-05-22T06:41:39.286Z,60.50
2019-05-22T06:44:28.379Z,60.40
2019-05-22T06:46:58.304Z,60.60
2019-05-22T06:49:38.571Z,60.40
2019-05-22T06:52:08.113Z,60.20
2019-05-22T06:54:38.134Z,60.20
2019-05-22T06:57:11.249Z,60.30
2019-05-22T06:59:41.202Z,61.10
2019-05-22T07:02:12.081Z,61.30
2019-05-22T07:04:41.308Z,61.80
2019-05-22T07:07:12.566Z,61.60
2019-05-22T07:09:41.890Z,61.80
2019-05-22T07:12:12.902Z,62.10
2019-05-22T07:15:20.148Z,62.40
2019-05-22T07:17:50.727Z,61.80
2019-05-22T07:20:21.342Z,61.80
2019-05-22T07:22:50.884Z,61.70
2019-05-22T07:25:21.702Z,61.80
2019-05-22T07:27:51.324Z,61.70
2019-05-22T07:30:20.803Z,61.50
2019-05-22T07:32:50.007Z,61.50
2019-05-22T07:35:19.569Z,61.50
2019-05-22T07:37:48.650Z,61.50
2019-05-22T07:40:18.723Z,61.30
2019-05-22T07:42:48.292Z,61.10
2019-05-22T07:45:17.478Z,60.60
2019-05-22T07:47:46.590Z,60.00
2019-05-22T07:50:15.696Z,59.70
2019-05-22T07:52:44.904Z,59.80
2019-05-22T07:55:14.136Z,59.30
2019-05-22T07:57:43.407Z,59.70
2019-05-22T08:00:12.619Z,59.40
2019-05-22T08:02:44.922Z,59.20
2019-05-22T08:05:14.862Z,59.70
2019-05-22T08:07:44.897Z,59.60
2019-05-22T08:10:15.936Z,58.70
2019-05-22T08:12:45.716Z,58.90
2019-05-22T08:15:14.688Z,58.90
2019-05-22T08:17:43.785Z,58.80
2019-05-22T08:20:12.998Z,58.30
2019-05-22T08:22:42.171Z,58.30
2019-05-22T08:25:11.339Z,58.30
2019-05-22T08:27:40.536Z,58.30
2019-05-22T08:30:10.106Z,58.20
2019-05-22T08:32:39.417Z,58.00
2019-05-22T08:35:09.455Z,58.10
2019-05-22T08:37:39.692Z,58.10
2019-05-22T08:40:10.237Z,58.30
2019-05-22T08:42:40.134Z,57.80
2019-05-22T08:45:11.710Z,58.00
2019-05-22T08:47:41.638Z,57.90
2019-05-22T08:50:12.343Z,57.80
2019-05-22T08:52:41.596Z,57.80
2019-05-22T08:55:10.763Z,57.90
2019-05-22T08:57:42.513Z,57.80
2019-05-22T09:00:12.688Z,57.90
2019-05-22T09:02:41.880Z,57.80
2019-05-22T09:05:11.105Z,57.70
2019-05-22T09:07:41.224Z,57.40
2019-05-22T09:10:11.390Z,57.80
2019-05-22T09:12:40.607Z,57.80
2019-05-22T09:15:10.176Z,57.80
2019-05-22T09:17:40.224Z,57.70
2019-05-22T09:20:09.926Z,57.80
2019-05-22T09:22:41.344Z,57.60
2019-05-22T09:25:12.655Z,57.60
2019-05-22T09:27:42.745Z,57.60
2019-05-22T09:30:11.883Z,57.60
2019-05-22T09:32:41.076Z,57.50
2019-05-22T09:35:10.290Z,57.60
2019-05-22T09:37:39.421Z,57.60
2019-05-22T09:40:09.573Z,57.40
2019-05-22T09:42:38.786Z,57.50
2019-05-22T09:45:08.338Z,57.40
2019-05-22T09:47:38.033Z,57.40
2019-05-22T09:50:08.126Z,57.30
2019-05-22T09:52:37.317Z,57.40
2019-05-22T09:55:06.840Z,57.40
2019-05-22T09:57:36.499Z,57.40
2019-05-22T10:00:08.452Z,57.40
2019-05-22T10:02:38.438Z,57.30
2019-05-22T10:05:08.157Z,57.50
2019-05-22T10:07:37.688Z,57.40
2019-05-22T10:10:06.926Z,57.40
2019-05-22T10:12:36.476Z,57.40
2019-05-22T10:15:06.110Z,57.70
2019-05-22T10:17:36.064Z,57.70
2019-05-22T10:20:06.932Z,57.70
2019-05-22T10:22:36.515Z,57.60
2019-05-22T10:25:15.972Z,57.60
2019-05-22T10:27:37.607Z,57.60
2019-05-22T10:30:08.065Z,57.60
2019-05-22T10:32:37.346Z,57.50
2019-05-22T10:35:06.740Z,57.60
2019-05-22T10:37:36.036Z,57.60
2019-05-22T10:40:05.846Z,57.60
2019-05-22T10:42:35.542Z,57.60
2019-05-22T10:45:04.955Z,57.70
2019-05-22T10:47:34.575Z,57.60
2019-05-22T10:50:03.888Z,57.60
2019-05-22T10:52:33.285Z,57.70
2019-05-22T10:55:02.497Z,57.70
2019-05-22T10:57:32.203Z,57.80
2019-05-22T11:00:01.881Z,57.70
2019-05-22T11:02:32.067Z,57.70
2019-05-22T11:05:01.577Z,57.70
2019-05-22T11:07:30.762Z,57.80
2019-05-22T11:10:01.238Z,57.70
2019-05-22T11:12:30.639Z,58.40
2019-05-22T11:14:59.926Z,57.80
2019-05-22T11:17:29.734Z,57.80
2019-05-22T11:19:59.350Z,57.80
2019-05-22T11:22:29.920Z,57.80
2019-05-22T11:25:02.314Z,57.80
2019-05-22T11:27:31.534Z,57.80
2019-05-22T11:30:01.097Z,57.80
2019-05-22T11:32:30.570Z,57.80
2019-05-22T11:34:59.815Z,57.80
2019-05-22T11:37:28.906Z,57.90
2019-05-22T11:39:58.093Z,57.90
2019-05-22T11:42:27.294Z,57.90
2019-05-22T11:44:56.974Z,57.90
2019-05-22T11:47:26.406Z,57.90
2019-05-22T11:49:55.899Z,57.90
2019-05-22T11:52:25.300Z,57.80
2019-05-22T11:54:54.435Z,57.90
2019-05-22T11:57:24.337Z,57.90
2019-05-22T11:59:53.535Z,57.80
2019-05-22T12:02:23.590Z,57.90
2019-05-22T12:04:53.177Z,57.90
2019-05-22T12:07:22.892Z,57.90
2019-05-22T12:09:52.077Z,57.90
2019-05-22T12:12:21.994Z,57.90
2019-05-22T12:14:51.228Z,57.90
2019-05-22T12:17:36.586Z,57.90
2019-05-22T12:19:52.060Z,58.40
2019-05-22T12:22:21.170Z,57.90
2019-05-22T12:24:50.710Z,57.80
2019-05-22T12:27:20.073Z,57.80
2019-05-22T12:29:49.848Z,57.80
2019-05-22T12:32:18.966Z,57.90
2019-05-22T12:34:49.521Z,57.80
2019-05-22T12:37:19.027Z,57.80
2019-05-22T12:39:48.586Z,57.80
2019-05-22T12:42:18.040Z,58.60
2019-05-22T12:44:47.671Z,58.30
2019-05-22T12:47:17.734Z,58.30
2019-05-22T12:49:47.039Z,58.10
2019-05-22T12:52:16.692Z,58.10
2019-05-22T12:54:49.682Z,58.00
2019-05-22T12:57:17.478Z,58.10
2019-05-22T12:59:46.660Z,58.10
2019-05-22T13:02:16.609Z,58.00
2019-05-22T13:04:46.621Z,58.00
2019-05-22T13:07:16.472Z,58.10
2019-05-22T13:09:45.745Z,58.20
2019-05-22T13:12:16.000Z,58.10
2019-05-22T13:14:45.594Z,58.10
2019-05-22T13:17:15.829Z,58.10
2019-05-22T13:19:46.014Z,58.10
2019-05-22T13:22:16.635Z,58.10
2019-05-22T13:24:46.166Z,58.20
2019-05-22T13:27:17.903Z,58.10
2019-05-22T13:29:47.150Z,58.20
2019-05-22T13:32:17.493Z,58.10
2019-05-22T13:34:46.662Z,58.70
2019-05-22T13:37:15.956Z,58.00
2019-05-22T13:39:45.113Z,58.50
2019-05-22T13:42:14.338Z,58.30
2019-05-22T13:44:44.242Z,58.10
2019-05-22T13:47:14.845Z,58.40
2019-05-22T13:49:45.264Z,59.20
2019-05-22T13:52:14.697Z,59.10
2019-05-22T13:54:43.902Z,58.90
2019-05-22T13:57:13.097Z,59.60
2019-05-22T13:59:42.256Z,59.00
2019-05-22T14:02:11.438Z,59.10
2019-05-22T14:04:40.901Z,59.10
2019-05-22T14:07:10.421Z,59.10
2019-05-22T14:09:39.638Z,58.80
2019-05-22T14:12:08.811Z,58.80
2019-05-22T14:14:38.182Z,58.70
2019-05-22T14:17:07.437Z,59.30
2019-05-22T14:19:36.500Z,59.70
2019-05-22T14:22:05.782Z,59.60
2019-05-22T14:24:34.931Z,59.50
2019-05-22T14:27:04.035Z,59.40
2019-05-22T14:29:33.253Z,59.20
2019-05-22T14:32:04.322Z,59.10
2019-05-22T14:34:33.499Z,59.40
2019-05-22T14:37:03.583Z,58.80
2019-05-22T14:39:33.134Z,58.70
2019-05-22T14:42:02.325Z,58.70
2019-05-22T14:44:33.881Z,58.70
2019-05-22T14:47:13.486Z,58.60
2019-05-22T14:49:33.610Z,58.50
2019-05-22T14:52:03.383Z,58.70
2019-05-22T14:54:32.605Z,58.60
2019-05-22T14:57:01.954Z,58.60
2019-05-22T14:59:31.259Z,58.50
2019-05-22T15:02:00.688Z,58.60
2019-05-22T15:04:31.419Z,58.70
2019-05-22T15:07:00.546Z,58.80
2019-05-22T15:09:29.761Z,58.60
2019-05-22T15:11:58.754Z,58.80
2019-05-22T15:14:27.855Z,58.60
2019-05-22T15:16:57.072Z,58.50
2019-05-22T15:19:26.880Z,58.50
2019-05-22T15:21:56.013Z,58.50
2019-05-22T15:24:25.458Z,58.30
2019-05-22T15:26:54.667Z,58.50
2019-05-22T15:29:24.105Z,58.10
2019-05-22T15:31:54.044Z,58.10
2019-05-22T15:34:23.256Z,58.30
2019-05-22T15:36:52.688Z,59.10
2019-05-22T15:39:23.423Z,58.30
2019-05-22T15:41:52.866Z,58.80
2019-05-22T15:44:22.347Z,58.30
2019-05-22T15:46:52.022Z,57.60
2019-05-22T15:49:21.207Z,57.90
2019-05-22T15:51:50.439Z,58.30
2019-05-22T15:54:19.921Z,58.50
2019-05-22T15:56:49.130Z,58.50
2019-05-22T15:59:18.795Z,58.30
2019-05-22T16:01:48.737Z,58.20
2019-05-22T16:04:19.881Z,58.30
2019-05-22T16:06:50.117Z,58.20
2019-05-22T16:09:20.870Z,58.30
2019-05-22T16:11:51.950Z,58.30
2019-05-22T16:14:21.971Z,58.30
2019-05-22T16:16:51.006Z,58.20
2019-05-22T16:19:20.770Z,58.30
2019-05-22T16:21:50.139Z,58.30
2019-05-22T16:24:19.619Z,58.30
2019-05-22T16:26:49.201Z,58.30
2019-05-22T16:29:19.071Z,58.10
2019-05-22T16:31:48.641Z,58.20
2019-05-22T16:34:17.862Z,58.20
2019-05-22T16:36:47.003Z,58.20
2019-05-22T16:39:17.710Z,58.10
2019-05-22T16:41:47.028Z,58.00
2019-05-22T16:44:16.208Z,58.00
2019-05-22T16:46:45.959Z,58.00
2019-05-22T16:49:15.187Z,58.00
2019-05-22T16:51:44.366Z,58.00
2019-05-22T16:54:14.208Z,58.00
2019-05-22T16:56:43.800Z,58.00
2019-05-22T16:59:14.362Z,58.00
2019-05-22T17:01:57.637Z,58.00
2019-05-22T17:04:14.706Z,58.00
2019-05-22T17:06:44.688Z,58.20
2019-05-22T17:09:15.621Z,58.20
2019-05-22T17:11:44.882Z,58.10
2019-05-22T17:14:14.732Z,58.00
2019-05-22T17:16:44.899Z,58.00
2019-05-22T17:19:26.461Z,58.10
2019-05-22T17:21:45.452Z,58.10
2019-05-22T17:24:15.280Z,58.00
2019-05-22T17:26:44.950Z,58.00
2019-05-22T17:29:14.048Z,58.10
2019-05-22T17:31:43.949Z,57.90
2019-05-22T17:34:32.239Z,57.90
2019-05-22T17:37:04.517Z,57.80
2019-05-22T17:39:35.377Z,57.80
2019-05-22T17:42:04.983Z,57.60
2019-05-22T17:44:34.837Z,57.50
2019-05-22T17:47:06.266Z,57.60
2019-05-22T17:49:35.285Z,57.60
2019-05-22T17:52:06.016Z,57.50
2019-05-22T17:54:35.209Z,57.80
2019-05-22T17:57:05.917Z,57.60
2019-05-22T17:59:36.213Z,57.60
2019-05-22T18:02:07.742Z,57.70
2019-05-22T18:04:37.278Z,57.70
2019-05-22T18:07:06.482Z,57.80
2019-05-22T18:09:36.151Z,58.10
2019-05-22T18:12:07.508Z,57.70
2019-05-22T18:14:37.145Z,57.70
2019-05-22T18:17:07.771Z,57.60
2019-05-22T18:19:37.126Z,57.70
2019-05-22T18:22:08.333Z,57.60
2019-05-22T18:24:38.114Z,57.60
2019-05-22T18:27:07.406Z,57.60
2019-05-22T18:29:36.515Z,57.60
2019-05-22T18:32:07.022Z,57.60
2019-05-22T18:34:36.262Z,57.60
2019-05-22T18:37:05.888Z,57.50
2019-05-22T18:39:35.797Z,57.60
2019-05-22T18:42:04.993Z,57.50
2019-05-22T18:44:34.333Z,57.60
2019-05-22T18:47:08.556Z,57.50
2019-05-22T18:49:38.450Z,57.60
2019-05-22T18:52:09.383Z,57.60
2019-05-22T18:54:40.717Z,57.50
2019-05-22T18:57:09.880Z,57.40
2019-05-22T18:59:39.078Z,57.40
2019-05-22T19:02:09.400Z,57.50
2019-05-22T19:04:38.699Z,57.50
2019-05-22T19:07:07.932Z,57.50
2019-05-22T19:09:37.311Z,57.50
2019-05-22T19:12:08.904Z,57.50
2019-05-22T19:14:40.638Z,57.50
2019-05-22T19:17:09.875Z,57.50
2019-05-22T19:19:48.260Z,57.40
2019-05-22T19:22:18.538Z,57.40
2019-05-22T19:24:48.420Z,57.40
2019-05-22T19:27:24.532Z,57.40
2019-05-22T19:29:54.185Z,57.40
2019-05-22T19:32:23.402Z,57.30
2019-05-22T19:34:52.562Z,57.30
2019-05-22T19:37:21.871Z,57.30
2019-05-22T19:39:51.884Z,57.30
2019-05-22T19:42:23.092Z,57.30
2019-05-22T19:44:52.256Z,57.30
2019-05-22T19:47:22.219Z,57.30
2019-05-22T19:49:56.751Z,57.30
2019-05-22T19:52:38.987Z,57.20
2019-05-22T19:55:00.317Z,57.30
2019-05-22T19:57:30.218Z,57.20
2019-05-22T20:00:01.088Z,57.20
2019-05-22T20:02:31.544Z,57.20
2019-05-22T20:05:01.136Z,57.20
2019-05-22T20:07:34.352Z,57.20
2019-05-22T20:10:05.310Z,57.80
2019-05-22T20:12:35.383Z,57.20
2019-05-22T20:15:04.857Z,57.20
2019-05-22T20:17:34.764Z,57.20
2019-05-22T20:20:05.936Z,57.10
2019-05-22T20:22:36.489Z,57.20
2019-05-22T20:25:07.706Z,57.10
2019-05-22T20:27:39.679Z,57.20
2019-05-22T20:30:10.318Z,57.10
2019-05-22T20:32:39.752Z,57.20
2019-05-22T20:35:10.349Z,57.20
2019-05-22T20:37:40.237Z,57.10
2019-05-22T20:40:09.968Z,57.20
2019-05-22T20:42:39.526Z,57.20
2019-05-22T20:45:09.648Z,57.20
2019-05-22T20:47:40.231Z,57.20
2019-05-22T20:50:12.860Z,57.20
2019-05-22T20:52:44.887Z,57.10
2019-05-22T20:55:14.825Z,57.10
2019-05-22T20:57:44.046Z,57.10
2019-05-22T21:00:17.163Z,57.00
2019-05-22T21:02:48.518Z,57.10
2019-05-22T21:05:28.378Z,57.10
2019-05-22T21:08:00.057Z,57.00
2019-05-22T21:10:32.784Z,57.00
2019-05-22T21:13:08.465Z,57.00
2019-05-22T21:15:44.652Z,57.00
2019-05-22T21:18:14.770Z,57.00
2019-05-22T21:20:54.619Z,57.00
2019-05-22T21:23:19.800Z,57.20
2019-05-22T21:25:49.266Z,56.80
2019-05-22T21:28:19.027Z,56.80
2019-05-22T21:30:49.614Z,56.80
2019-05-22T21:33:18.854Z,57.20
2019-05-22T21:35:48.844Z,56.90
2019-05-22T21:38:18.054Z,56.60
2019-05-22T21:40:47.660Z,56.50
2019-05-22T21:43:17.014Z,56.50
2019-05-22T21:45:46.663Z,56.60
2019-05-22T21:48:15.896Z,56.60
2019-05-22T21:50:45.133Z,56.60
2019-05-22T21:53:14.740Z,56.60
2019-05-22T21:55:45.614Z,56.80
2019-05-22T21:58:15.262Z,57.00
2019-05-22T22:01:03.821Z,56.90
2019-05-22T22:03:36.712Z,57.10
2019-05-22T22:06:06.470Z,57.10
2019-05-22T22:08:36.769Z,57.10
2019-05-22T22:11:05.933Z,57.20
2019-05-22T22:13:37.293Z,57.20
2019-05-22T22:16:07.979Z,57.30
2019-05-22T22:18:39.037Z,57.30
2019-05-22T22:21:07.915Z,57.40
2019-05-22T22:23:37.476Z,57.50
2019-05-22T22:26:24.247Z,57.40
2019-05-22T22:28:40.427Z,57.50
2019-05-22T22:31:11.426Z,57.30
2019-05-22T22:33:41.444Z,57.50
2019-05-22T22:36:11.634Z,57.50
2019-05-22T22:38:42.351Z,57.50
2019-05-22T22:41:12.241Z,57.50
2019-05-22T22:43:43.178Z,57.50
2019-05-22T22:46:23.186Z,57.60
2019-05-22T22:48:53.255Z,57.50
2019-05-22T22:51:22.641Z,57.60
2019-05-22T22:53:51.922Z,57.50
2019-05-22T22:56:22.102Z,57.50
2019-05-22T22:58:51.662Z,57.60
2019-05-22T23:01:25.740Z,57.50
2019-05-22T23:03:56.387Z,57.50
2019-05-22T23:06:25.764Z,57.70
2019-05-22T23:08:55.022Z,57.80
2019-05-22T23:11:26.508Z,57.70
2019-05-22T23:13:55.708Z,57.80
2019-05-22T23:16:25.683Z,57.80
2019-05-22T23:19:47.481Z,57.80
2019-05-22T23:22:27.395Z,57.80
2019-05-22T23:24:56.854Z,57.80
2019-05-22T23:27:27.408Z,57.90
2019-05-22T23:29:57.866Z,57.80
2019-05-22T23:32:28.266Z,57.90
2019-05-22T23:34:59.622Z,57.90
2019-05-22T23:37:30.474Z,57.90
2019-05-22T23:40:00.069Z,57.90
2019-05-22T23:42:33.934Z,57.90
2019-05-22T23:45:03.877Z,58.00
2019-05-22T23:47:33.194Z,58.00
2019-05-22T23:50:02.557Z,57.90
2019-05-22T23:52:32.644Z,57.90
2019-05-22T23:55:02.826Z,58.00
2019-05-22T23:57:31.930Z,57.90
